Forside
METAR-TAF:

METAR-TAF

Lufthavne :

Davenport Municipal Airport

Davenport, Iowa, USA

Breddekreds: 41-36-50N, længdekreds: 090-35-29W, højde: 229 m

Aktuelle vejr

Denne rapport blev lavet for 34 minutter siden, kl. 20:52 UTC
Vind 10 kt fra vest
Temperatur -2°C
Fugtighed 86%
Tryk 1014 hPa
Sigt: 8.0 km
Nogle få skyer i en højde af 1200 ft
Brudte skyer i en højde af 4500 ft
Overskyet i en højde af 8500 ft
tåge/dis

METAR: KDVN 262052Z AUTO 26010KT 5SM HZ FEW012 BKN045 OVC085 M02/M04 A2993 RMK AO2 SLP140 T10171044 56007

Tid: 15:26 (21:26 UTC)


TAF: fraværende

Vejrobservationer og prognoser fra mere end 4000 lufthavne (METAR og TAF).

De gule og røde prikker repræsenterer de meteorologiske stationer.

Flyt musen over at se navnet på stationen.

Så klik over at se vejr observationer og prognoser.

At skifte det kort: Klik på de grønne knapper med et sort kors for at zoome ind; på den grønne knap med en bindestreg for at zoome ud; eller på de grønne pile for tilstødende kort.


METAR-TAF: